Time;durP1;ratioP1;P1;durP2;ratioP2;P2;SDS_P1;SDS_P2;PMS_P1;PMS_P2;Temp;Humidity;BMP_temperature;BMP_pressure;BME280_temperature;BME280_humidity;BME280_pressure;Samples;Min_cycle;Max_cycle;Signal;HPM_P1;HPM_P2
2022/03/20 00:02:54;;;;;;;4.78;2.12;;;;;;;1.15;44.46;102978.41;18431259;32;20092;-64
2022/03/20 00:12:58;;;;;;;1.23;1.17;;;;;;;1.42;43.17;102971.03;18433099;32;20096;-64
2022/03/20 00:23:04;;;;;;;1.45;1.35;;;;;;;1.42;43.06;102977.06;18431024;32;20101;-64
2022/03/20 00:33:08;;;;;;;2.73;2.03;;;;;;;1.51;41.63;102993.22;18430768;32;20452;-64
2022/03/20 00:43:13;;;;;;;1.37;1.30;;;;;;;1.56;40.46;102995.28;18430186;32;20718;-64
2022/03/20 00:53:16;;;;;;;3.40;2.28;;;;;;;2.17;37.56;102985.19;18429495;32;20373;-64
2022/03/20 01:03:20;;;;;;;5.37;2.25;;;;;;;2.36;37.86;102992.63;18428571;32;20447;-64
2022/03/20 01:13:24;;;;;;;2.03;1.75;;;;;;;1.88;39.21;102983.94;18429298;32;20087;-64
2022/03/20 01:23:30;;;;;;;1.25;1.15;;;;;;;2.36;35.65;102974.59;18436534;32;20101;-64
2022/03/20 01:33:34;;;;;;;6.12;1.70;;;;;;;2.23;36.25;102970.19;18378894;32;20449;-64
2022/03/20 01:43:38;;;;;;;3.60;1.90;;;;;;;2.65;34.58;102980.94;18372165;32;20129;-64
2022/03/20 01:53:42;;;;;;;3.45;1.83;;;;;;;2.56;37.48;102994.09;18371650;32;20124;-64
2022/03/20 02:03:51;;;;;;;1.00;1.00;;;;;;;2.27;38.42;102990.25;18370977;32;20097;-64
2022/03/20 02:13:55;;;;;;;1.50;1.40;;;;;;;2.24;36.31;102984.88;18387782;32;20085;-64
2022/03/20 02:24:00;;;;;;;0.98;0.98;;;;;;;2.44;36.23;102996.66;18398760;32;20119;-64
2022/03/20 02:34:04;;;;;;;1.45;1.35;;;;;;;2.62;37.55;103009.09;18396373;32;20111;-65
2022/03/20 02:44:08;;;;;;;2.90;1.98;;;;;;;2.07;38.09;103035.19;18394498;32;20097;-64
2022/03/20 02:54:12;;;;;;;1.48;1.35;;;;;;;1.93;38.31;103037.59;18396070;32;20378;-64
2022/03/20 03:04:22;;;;;;;0.68;0.68;;;;;;;1.83;38.29;103034.22;18395594;32;20089;-64
2022/03/20 03:24:48;;;;;;;3.33;1.47;;;;;;;1.40;41.07;103063.56;18395437;32;20089;-64
2022/03/20 03:45:13;;;;;;;3.63;1.50;;;;;;;1.51;40.09;103074.72;18366611;32;20361;-64
2022/03/20 03:55:17;;;;;;;3.40;2.12;;;;;;;2.11;38.51;103086.16;18367055;32;20102;-64
2022/03/20 04:05:22;;;;;;;4.23;1.33;;;;;;;1.69;40.15;103082.09;18366264;32;20123;-64
2022/03/20 04:15:25;;;;;;;2.70;1.20;;;;;;;1.64;41.25;103099.75;18366102;32;20113;-64
2022/03/20 04:25:30;;;;;;;2.23;1.43;;;;;;;1.46;40.56;103109.50;18366710;32;20143;-64
2022/03/20 04:35:33;;;;;;;2.53;1.98;;;;;;;1.27;40.96;103126.06;18365422;32;20115;-64
2022/03/20 04:45:39;;;;;;;2.45;2.10;;;;;;;1.19;42.41;103132.28;18364793;32;20129;-64
2022/03/20 05:06:06;;;;;;;2.25;2.08;;;;;;;0.91;42.71;103151.50;18371668;32;20111;-64
2022/03/20 05:16:09;;;;;;;4.47;2.07;;;;;;;0.84;42.90;103169.78;18371407;32;20139;-64
2022/03/20 05:26:15;;;;;;;1.17;1.07;;;;;;;0.95;44.19;103189.59;18370661;32;20111;-64
2022/03/20 05:36:18;;;;;;;1.83;1.73;;;;;;;1.02;43.85;103187.50;18371031;32;20621;-65
2022/03/20 05:46:24;;;;;;;3.95;2.35;;;;;;;1.64;42.24;103189.91;18370398;32;20154;-64
2022/03/20 06:06:50;;;;;;;6.68;2.45;;;;;;;5.09;36.35;103216.31;18423262;32;20124;-65
2022/03/20 06:16:56;;;;;;;7.03;2.50;;;;;;;7.57;31.75;103219.97;18435960;32;20089;-65
2022/03/20 06:27:01;;;;;;;8.40;3.15;;;;;;;9.30;28.69;103244.53;18434589;32;20093;-65
2022/03/20 06:37:05;;;;;;;6.93;2.60;;;;;;;10.05;27.63;103248.00;18434272;32;20088;-65
2022/03/20 06:47:10;;;;;;;7.37;2.97;;;;;;;10.89;25.23;103256.94;18434213;32;20148;-65
2022/03/20 06:57:13;;;;;;;7.50;3.10;;;;;;;11.96;24.00;103269.03;18433705;32;20104;-65
2022/03/20 07:07:22;;;;;;;6.30;2.85;;;;;;;11.77;23.92;103265.72;18428798;32;20104;-65
2022/03/20 07:17:27;;;;;;;4.60;2.42;;;;;;;9.36;27.34;103273.50;18432344;32;20093;-65
2022/03/20 07:37:52;;;;;;;;;;;;;;;8.62;28.50;103291.50;18411316;32;20112;-65
2022/03/20 07:48:00;;;;;;;4.93;2.58;;;;;;;8.98;28.02;103293.34;18368658;32;20511;-65
2022/03/20 07:58:04;;;;;;;4.85;2.62;;;;;;;9.90;26.59;103289.94;18368330;32;20085;-65
2022/03/20 08:08:14;;;;;;;7.15;2.50;;;;;;;9.68;26.52;103283.72;18367809;32;20777;-65
2022/03/20 08:18:17;;;;;;;8.63;2.87;;;;;;;9.52;26.86;103292.50;18367392;32;20107;-65
2022/03/20 08:28:23;;;;;;;4.62;2.72;;;;;;;9.30;26.54;103281.94;18366353;32;20108;-65
2022/03/20 08:38:26;;;;;;;6.50;2.50;;;;;;;8.76;27.56;103281.78;18367547;32;20100;-65
2022/03/20 08:48:31;;;;;;;6.30;3.15;;;;;;;9.60;27.12;103266.81;18365466;32;20101;-65
2022/03/20 08:58:34;;;;;;;5.90;2.72;;;;;;;10.14;26.17;103270.19;18422167;32;20112;-65
2022/03/20 09:08:39;;;;;;;6.82;2.62;;;;;;;11.05;25.04;103256.75;18422461;32;20188;-65
2022/03/20 09:19:00;;;;;;;7.43;2.58;;;;;;;10.95;24.24;103260.69;18428788;32;20115;-65
2022/03/20 09:29:05;;;;;;;4.30;3.17;;;;;;;11.24;23.73;103240.09;18426980;32;20081;-65
2022/03/20 09:39:09;;;;;;;6.32;3.08;;;;;;;11.66;22.86;103238.22;18433024;32;20149;-65
2022/03/20 09:49:14;;;;;;;8.45;2.97;;;;;;;15.73;18.83;103227.66;18412506;32;20101;-66
2022/03/20 09:59:17;;;;;;;6.95;2.78;;;;;;;15.87;17.44;103225.34;18414598;32;20084;-66
2022/03/20 10:09:23;;;;;;;5.45;2.87;;;;;;;17.78;15.67;103204.81;18406467;32;20497;-66
2022/03/20 10:19:31;;;;;;;5.35;2.30;;;;;;;15.89;17.20;103200.81;18401558;32;20093;-66
2022/03/20 10:29:37;;;;;;;5.03;2.40;;;;;;;15.77;17.62;103196.16;18434519;32;20089;-65
2022/03/20 10:39:42;;;;;;;4.57;2.05;;;;;;;14.94;17.90;103188.22;18434464;32;20111;-65
2022/03/20 10:49:52;;;;;;;6.30;2.50;;;;;;;13.76;19.41;103186.81;18430160;32;20396;-66
2022/03/20 11:00:01;;;;;;;5.32;2.28;;;;;;;17.33;16.43;103165.50;18407148;32;20094;-65
2022/03/20 11:10:10;;;;;;;6.20;2.70;;;;;;;16.36;16.24;103156.94;18396614;32;20108;-66
2022/03/20 11:20:15;;;;;;;5.87;1.95;;;;;;;15.66;17.39;103140.66;18374991;32;20108;-66
2022/03/20 11:30:21;;;;;;;6.80;2.78;;;;;;;14.16;18.06;103132.75;18412561;32;20105;-65
2022/03/20 11:40:25;;;;;;;5.12;2.12;;;;;;;12.99;19.61;103115.34;18399720;32;20129;-65
2022/03/20 11:50:41;;;;;;;4.57;2.12;;;;;;;12.77;21.22;103105.09;18432616;32;20176;-65
2022/03/20 12:00:46;;;;;;;1.60;1.05;;;;;;;11.94;21.08;103083.09;18431388;32;20183;-66
2022/03/20 12:11:01;;;;;;;2.10;1.35;;;;;;;11.22;18.90;103076.12;18432470;32;20116;-65
2022/03/20 12:21:05;;;;;;;4.60;1.98;;;;;;;11.85;18.51;103071.41;18431509;32;20095;-65
2022/03/20 12:31:09;;;;;;;1.75;1.23;;;;;;;10.74;19.84;103072.53;18409434;32;20149;-65
2022/03/20 12:41:15;;;;;;;3.72;1.40;;;;;;;12.43;18.95;103061.19;18400407;32;20093;-66
2022/03/20 12:51:34;;;;;;;3.65;2.08;;;;;;;11.26;18.94;103053.59;18413232;32;20205;-64
2022/03/20 13:01:38;;;;;;;3.25;1.83;;;;;;;11.05;19.68;103050.25;18398691;32;20102;-66
2022/03/20 13:11:51;;;;;;;2.85;1.85;;;;;;;10.27;20.12;103044.50;18419605;32;20107;-66
2022/03/20 13:21:55;;;;;;;1.80;1.33;;;;;;;11.36;19.67;103029.56;18403124;32;20077;-64
2022/03/20 13:32:04;;;;;;;2.67;1.42;;;;;;;11.50;18.38;103019.59;18416167;32;20097;-66
2022/03/20 13:42:19;;;;;;;4.60;1.90;;;;;;;10.77;19.08;103012.59;18436016;32;20097;-66
2022/03/20 13:52:29;;;;;;;4.10;1.55;;;;;;;10.41;19.35;102994.59;18394802;32;20097;-65
2022/03/20 14:02:39;;;;;;;1.48;1.00;;;;;;;10.30;19.95;102988.03;18412842;32;20369;-66
2022/03/20 14:12:44;;;;;;;3.67;1.20;;;;;;;10.25;19.59;102993.06;18395691;32;20107;-65
2022/03/20 14:22:53;;;;;;;3.17;1.50;;;;;;;10.68;19.03;102989.59;18420643;32;20080;-65
2022/03/20 14:43:28;;;;;;;1.60;1.33;;;;;;;11.28;18.54;102966.53;18393031;32;20484;-65
2022/03/20 14:53:32;;;;;;;4.72;2.10;;;;;;;11.05;18.96;102952.63;18371281;32;20156;-65
2022/03/20 15:03:36;;;;;;;4.15;1.67;;;;;;;10.86;19.30;102938.87;18369845;32;20086;-65
2022/03/20 15:13:40;;;;;;;3.15;1.70;;;;;;;10.77;19.36;102931.59;18369515;32;20089;-67
2022/03/20 15:23:44;;;;;;;3.85;1.87;;;;;;;10.45;19.53;102930.34;18369284;32;20093;-65
2022/03/20 15:33:48;;;;;;;3.40;1.62;;;;;;;11.31;18.93;102916.94;18367862;32;20123;-65
2022/03/20 15:43:54;;;;;;;3.40;1.80;;;;;;;10.99;18.68;102919.31;18368546;32;20137;-65
2022/03/20 15:53:59;;;;;;;3.20;1.73;;;;;;;10.32;19.55;102921.97;18416958;32;20107;-66
2022/03/20 16:04:03;;;;;;;38.80;15.45;;;;;;;10.23;19.39;102924.22;18421448;32;20441;-65
2022/03/20 16:14:09;;;;;;;13.00;5.37;;;;;;;10.57;19.62;102915.13;18417831;32;20093;-65
2022/03/20 16:34:34;;;;;;;6.30;3.45;;;;;;;10.18;21.24;102915.34;18388234;32;20097;-65
2022/03/20 16:44:37;;;;;;;5.87;2.28;;;;;;;9.63;23.53;102905.31;18382750;32;20445;-65
2022/03/20 16:54:42;;;;;;;4.30;1.65;;;;;;;8.65;24.63;102914.09;18368630;32;20085;-65
2022/03/20 17:04:45;;;;;;;2.30;1.42;;;;;;;8.16;24.99;102915.22;18363296;32;20377;-65
2022/03/20 17:14:50;;;;;;;2.87;1.75;;;;;;;7.50;26.99;102912.00;18361808;32;20508;-65
2022/03/20 17:24:54;;;;;;;2.40;2.20;;;;;;;7.00;28.64;102910.28;18364236;32;20100;-65
2022/03/20 17:34:58;;;;;;;1.80;1.62;;;;;;;6.23;30.31;102919.16;18363505;32;20085;-65
2022/03/20 17:45:02;;;;;;;2.30;1.40;;;;;;;5.60;31.76;102918.09;18363201;32;20140;-64
2022/03/20 17:55:09;;;;;;;2.00;1.42;;;;;;;5.13;31.40;102924.00;18363265;32;20183;-64
2022/03/20 18:15:37;;;;;;;1.30;1.27;;;;;;;4.19;33.68;102938.81;18371295;32;20094;-64
2022/03/20 18:25:40;;;;;;;1.77;1.58;;;;;;;3.72;35.03;102935.75;18371431;32;20142;-64
2022/03/20 18:35:45;;;;;;;3.58;2.35;;;;;;;3.48;35.60;102948.84;18370668;32;20090;-64
2022/03/20 18:45:48;;;;;;;9.75;2.00;;;;;;;3.22;36.13;102954.75;18370350;32;20115;-64
2022/03/20 18:55:58;;;;;;;1.98;1.83;;;;;;;2.90;37.00;102952.63;18374823;32;20132;-65
2022/03/20 19:06:02;;;;;;;4.37;1.52;;;;;;;2.55;36.21;102957.88;18399160;32;34190;-64
2022/03/20 19:16:07;;;;;;;16.73;7.03;;;;;;;2.32;37.52;102959.66;18422935;32;20144;-64
2022/03/20 19:26:11;;;;;;;11.18;4.65;;;;;;;2.08;38.29;102957.97;18373894;32;20461;-64
2022/03/20 19:46:36;;;;;;;12.77;3.92;;;;;;;1.63;40.43;102964.06;18428021;32;20170;-64
2022/03/20 19:56:41;;;;;;;7.03;3.97;;;;;;;1.60;42.45;102968.97;18406766;32;20085;-64
2022/03/20 20:06:44;;;;;;;3.05;2.62;;;;;;;1.55;42.37;102967.72;18371418;32;20449;-65
2022/03/20 20:16:49;;;;;;;1.50;1.40;;;;;;;1.41;42.71;102969.25;18393782;32;20104;-64
2022/03/20 20:26:53;;;;;;;6.87;3.12;;;;;;;1.55;42.53;102960.88;18392937;32;20649;-65
2022/03/20 20:36:58;;;;;;;4.17;2.70;;;;;;;1.44;43.21;102954.03;18392634;32;20089;-65
2022/03/20 20:47:01;;;;;;;10.67;3.80;;;;;;;1.04;43.31;102955.31;18402007;32;20105;-64
2022/03/20 20:57:07;;;;;;;12.00;5.33;;;;;;;1.03;43.37;102950.03;18412935;32;20081;-65
2022/03/20 21:17:36;;;;;;;8.25;2.75;;;;;;;0.81;45.01;102938.09;18390674;32;20151;-64
2022/03/20 21:27:39;;;;;;;5.90;4.50;;;;;;;0.54;45.79;102940.25;18373278;32;20090;-64
2022/03/20 21:37:44;;;;;;;15.33;4.37;;;;;;;0.32;45.68;102929.91;18370312;32;20155;-65
2022/03/20 21:47:47;;;;;;;4.50;2.97;;;;;;;0.16;46.13;102928.69;18370021;32;20096;-64
2022/03/20 21:57:57;;;;;;;4.70;3.57;;;;;;;0.33;47.36;102935.19;18371140;32;20143;-64
2022/03/20 22:08:03;;;;;;;3.97;2.53;;;;;;;-0.01;49.08;102925.63;18369892;32;20094;-64
2022/03/20 22:18:08;;;;;;;4.47;3.40;;;;;;;0.13;46.69;102913.00;18368825;32;20145;-64
2022/03/20 22:28:11;;;;;;;3.20;2.77;;;;;;;0.04;47.44;102923.44;18369471;32;20104;-64
2022/03/20 22:38:16;;;;;;;9.10;3.93;;;;;;;-0.43;48.71;102927.34;18369226;32;20118;-64
2022/03/20 22:58:43;;;;;;;5.97;4.53;;;;;;;-0.63;49.27;102941.06;18423594;32;20692;-64
2022/03/20 23:08:47;;;;;;;3.63;2.80;;;;;;;-0.75;49.71;102935.81;18414657;32;20115;-64
2022/03/20 23:18:52;;;;;;;4.53;4.13;;;;;;;-1.11;50.88;102939.56;18367807;32;20120;-64
2022/03/20 23:28:59;;;;;;;11.50;2.83;;;;;;;-1.19;50.46;102938.00;18367663;32;20373;-64
2022/03/20 23:39:04;;;;;;;9.17;4.60;;;;;;;-1.21;51.36;102934.41;18367579;32;20192;-65
2022/03/20 23:49:08;;;;;;;4.70;3.27;;;;;;;-1.52;52.88;102937.75;18367175;32;20089;-64
2022/03/20 23:59:12;;;;;;;3.13;2.83;;;;;;;-1.20;51.91;102931.09;18366014;32;20145;-64
